Asahimaru — JJ3895 — position and weather

sailwx.info

Track history (hours):
 
Tides and Currents Weather Stations Pressure Air Temp Water Temp Dewpoint Dewpoint Depression Visibility Wind Speed Wind Dir Waves Ship Positions

Asahimaru

Last reported at 2018-Jun-10 04:52 UTC. Time now 2018-Jun-18 13:08 UTC.
Position N 34°28' E 134°30'.
Warning: this ship's position is 8 days out of date.

Length 48 m.

Type: Tanker. MMSI: 431300201.

Date/timePositionNaut miles runAvg speedWind from/ knotsBaromVisibWave heightAir tempDewpointWater temp
2018-Jun-10 04:52N 34°28' E 134°30'411.1
2018-Jun-10 04:30N 34°30' E 134°34'810.9
2018-Jun-10 03:45N 34°33' E 134°43'20 9.4
2018-Jun-10 01:40N 34°37' E 135°07'2 1.3
2018-Jun-10 00:17N 34°39' E 135°08'0 0.0
2018-Jun-09 23:59N 34°39' E 135°08'1 2.5
2018-Jun-09 23:30N 34°37' E 135°08'5 9.1
2018-Jun-09 22:58N 34°34' E 135°04'26 1.5
2018-Jun-09 05:33N 34°28' E 134°33'  
2018-Jun-06 23:05N 34°28' E 134°30'110.6
2018-Jun-06 22:59N 34°28' E 134°31'710.1
2018-Jun-06 22:16N 34°31' E 134°40'18 8.7
2018-Jun-06 20:08N 34°34' E 135°02'1 0.1
2018-Jun-06 02:15N 34°33' E 135°01'810.3
2018-Jun-06 01:27N 34°34' E 135°11'9 0.7
2018-Jun-05 12:27N 34°32' E 135°22'911.2
2018-Jun-05 11:40N 34°27' E 135°13'311.3
2018-Jun-05 11:25N 34°25' E 135°10'511.4
2018-Jun-05 11:00N 34°22' E 135°07'511.3
2018-Jun-05 10:31N 34°17' E 135°03'610.9
2018-Jun-05 10:00N 34°12' E 135°02'611.5
2018-Jun-05 09:30N 34°06' E 134°60'611.0
2018-Jun-05 08:59N 34°01' E 134°56'35 1.3
2018-Jun-04 06:51N 34°21' E 134°21'10 0.9
2018-Jun-03 19:53N 34°28' E 134°30'910.7
2018-Jun-03 19:05N 34°31' E 134°39'311.2
2018-Jun-03 18:46N 34°32' E 134°43'15 9.8
2018-Jun-03 17:12N 34°34' E 135°02'2 1.5
2018-Jun-03 15:34N 34°33' E 134°60'0 0.0
2018-Jun-03 15:10N 34°33' E 134°60'0 0.0
2018-Jun-03 13:58N 34°33' E 134°60'0 0.0
2018-Jun-03 13:28N 34°33' E 134°60'0 0.0
2018-Jun-03 12:58N 34°33' E 134°60'0 0.0
2018-Jun-03 12:28N 34°33' E 134°60'0 0.0
2018-Jun-03 11:58N 34°33' E 134°60'0 0.0
2018-Jun-03 11:10N 34°33' E 134°60'0 0.0
2018-Jun-03 10:52N 34°33' E 134°60'0 0.0
2018-Jun-03 10:28N 34°33' E 134°60'0 0.0
2018-Jun-03 09:58N 34°33' E 134°60'0 0.0
2018-Jun-03 09:28N 34°33' E 134°60'0 0.0
2018-Jun-03 08:58N 34°33' E 134°60'0 0.0
2018-Jun-03 08:28N 34°33' E 134°60'0 0.0
2018-Jun-03 07:34N 34°33' E 134°60'0 0.0
2018-Jun-03 07:22N 34°33' E 134°60'0 0.0
2018-Jun-03 06:52N 34°33' E 134°60'0 0.0
2018-Jun-03 06:28N 34°33' E 134°60'0 0.0
2018-Jun-03 05:56N 34°33' E 134°60'3 6.4
2018-Jun-03 05:30N 34°34' E 135°02'510.1
2018-Jun-03 05:00N 34°37' E 135°07'2 1.0
2018-Jun-03 03:20N 34°39' E 135°08'1 1.7
2018-Jun-03 03:00N 34°38' E 135°08'0 0.8
2018-Jun-03 02:26N 34°38' E 135°08'2 5.5
2018-Jun-03 02:00N 34°36' E 135°06'5 0.3
2018-Jun-02 08:05N 34°33' E 135°01'  
Track history (hours):
 
Tides and Currents Weather Stations Pressure Air Temp Water Temp Dewpoint Dewpoint Depression Visibility Wind Speed Wind Dir Waves Ship Positions

Asahimaru

Last reported at 2018-Jun-10 04:52 UTC. Time now 2018-Jun-18 13:09 UTC.
Position N 34°28' E 134°30'.
Warning: this ship's position is 8 days out of date.

Length 48 m.

Type: Tanker. MMSI: 431300201.

Date/timePositionNaut miles runAvg speedWind from/ knotsBaromVisibWave heightAir tempDewpointWater temp
2018-Jun-10 04:52N 34°28' E 134°30'411.1
2018-Jun-10 04:30N 34°30' E 134°34'810.9
2018-Jun-10 03:45N 34°33' E 134°43'20 9.4
2018-Jun-10 01:40N 34°37' E 135°07'2 1.3
2018-Jun-10 00:17N 34°39' E 135°08'0 0.0
2018-Jun-09 23:59N 34°39' E 135°08'1 2.5
2018-Jun-09 23:30N 34°37' E 135°08'5 9.1
2018-Jun-09 22:58N 34°34' E 135°04'26 1.5
2018-Jun-09 05:33N 34°28' E 134°33'  
2018-Jun-06 23:05N 34°28' E 134°30'110.6
2018-Jun-06 22:59N 34°28' E 134°31'710.1
2018-Jun-06 22:16N 34°31' E 134°40'18 8.7
2018-Jun-06 20:08N 34°34' E 135°02'1 0.1
2018-Jun-06 02:15N 34°33' E 135°01'810.3
2018-Jun-06 01:27N 34°34' E 135°11'9 0.7
2018-Jun-05 12:27N 34°32' E 135°22'911.2
2018-Jun-05 11:40N 34°27' E 135°13'311.3
2018-Jun-05 11:25N 34°25' E 135°10'511.4
2018-Jun-05 11:00N 34°22' E 135°07'511.3
2018-Jun-05 10:31N 34°17' E 135°03'610.9
2018-Jun-05 10:00N 34°12' E 135°02'611.5
2018-Jun-05 09:30N 34°06' E 134°60'611.0
2018-Jun-05 08:59N 34°01' E 134°56'35 1.3
2018-Jun-04 06:51N 34°21' E 134°21'10 0.9
2018-Jun-03 19:53N 34°28' E 134°30'910.7
2018-Jun-03 19:05N 34°31' E 134°39'311.2
2018-Jun-03 18:46N 34°32' E 134°43'15 9.8
2018-Jun-03 17:12N 34°34' E 135°02'2 1.5
2018-Jun-03 15:34N 34°33' E 134°60'0 0.0
2018-Jun-03 15:10N 34°33' E 134°60'0 0.0
2018-Jun-03 13:58N 34°33' E 134°60'0 0.0
2018-Jun-03 13:28N 34°33' E 134°60'0 0.0
2018-Jun-03 12:58N 34°33' E 134°60'0 0.0
2018-Jun-03 12:28N 34°33' E 134°60'0 0.0
2018-Jun-03 11:58N 34°33' E 134°60'0 0.0
2018-Jun-03 11:10N 34°33' E 134°60'0 0.0
2018-Jun-03 10:52N 34°33' E 134°60'0 0.0
2018-Jun-03 10:28N 34°33' E 134°60'0 0.0
2018-Jun-03 09:58N 34°33' E 134°60'0 0.0
2018-Jun-03 09:28N 34°33' E 134°60'0 0.0
2018-Jun-03 08:58N 34°33' E 134°60'0 0.0
2018-Jun-03 08:28N 34°33' E 134°60'0 0.0
2018-Jun-03 07:34N 34°33' E 134°60'0 0.0
2018-Jun-03 07:22N 34°33' E 134°60'0 0.0
2018-Jun-03 06:52N 34°33' E 134°60'0 0.0
2018-Jun-03 06:28N 34°33' E 134°60'0 0.0
2018-Jun-03 05:56N 34°33' E 134°60'3 6.4
2018-Jun-03 05:30N 34°34' E 135°02'510.1
2018-Jun-03 05:00N 34°37' E 135°07'2 1.0
2018-Jun-03 03:20N 34°39' E 135°08'1 1.7
2018-Jun-03 03:00N 34°38' E 135°08'0 0.8
2018-Jun-03 02:26N 34°38' E 135°08'2 5.5
2018-Jun-03 02:00N 34°36' E 135°06'5 0.3
2018-Jun-02 08:05N 34°33' E 135°01'  

Dump ship's entire track history